createdAt,value
2022-10-11T00:00:40.466Z,101512.06
2022-10-11T00:03:11.165Z,101509.67
2022-10-11T00:05:41.586Z,101508.25
2022-10-11T00:08:11.259Z,101506.71
2022-10-11T00:10:44.143Z,101508.27
2022-10-11T00:13:13.253Z,101507.48
2022-10-11T00:15:43.510Z,101507.18
2022-10-11T00:18:13.101Z,101506.80
2022-10-11T00:20:43.522Z,101504.36
2022-10-11T00:23:14.790Z,101503.52
2022-10-11T00:25:44.326Z,101502.83
2022-10-11T00:28:13.607Z,101500.12
2022-10-11T00:30:44.672Z,101502.58
2022-10-11T00:33:15.639Z,101506.27
2022-10-11T00:35:44.701Z,101505.20
2022-10-11T00:38:15.011Z,101512.03
2022-10-11T00:40:45.036Z,101511.08
2022-10-11T00:43:26.056Z,101510.88
2022-10-11T00:45:58.591Z,101509.06
2022-10-11T00:48:50.774Z,101508.63
2022-10-11T00:51:25.496Z,101511.50
2022-10-11T00:53:56.024Z,101514.43
2022-10-11T00:56:32.049Z,101512.67
2022-10-11T00:59:06.366Z,101511.11
2022-10-11T01:01:37.226Z,101510.72
2022-10-11T01:04:10.840Z,101505.20
2022-10-11T01:06:40.266Z,101503.42
2022-10-11T01:09:10.248Z,101498.36
2022-10-11T01:11:42.751Z,101499.32
2022-10-11T01:14:37.692Z,101499.16
2022-10-11T01:17:26.339Z,101500.44
2022-10-11T01:20:29.018Z,101500.61
2022-10-11T01:23:13.828Z,101497.48
2022-10-11T01:26:04.363Z,101497.52
2022-10-11T01:29:01.435Z,101497.48
2022-10-11T01:32:05.160Z,101497.39
2022-10-11T01:34:53.302Z,101499.15
2022-10-11T01:37:35.938Z,101500.08
2022-10-11T01:40:12.451Z,101493.40
2022-10-11T01:42:44.085Z,101497.58
2022-10-11T01:45:18.335Z,101495.34
2022-10-11T01:47:48.316Z,101494.11
2022-10-11T01:50:40.995Z,101491.45
2022-10-11T01:53:50.373Z,101492.64
2022-10-11T01:56:44.123Z,101492.70
2022-10-11T02:02:39.712Z,101493.20
2022-10-11T02:05:41.178Z,101493.66
2022-10-11T02:08:34.835Z,101498.21
2022-10-11T02:11:08.361Z,101492.34
2022-10-11T02:13:46.659Z,101489.14
2022-10-11T02:16:23.762Z,101488.29
2022-10-11T02:18:56.469Z,101485.30
2022-10-11T02:21:27.128Z,101484.46
2022-10-11T02:24:09.505Z,101484.46
2022-10-11T02:26:45.006Z,101483.19
2022-10-11T02:29:18.858Z,101477.85
2022-10-11T02:31:52.575Z,101477.85
2022-10-11T02:34:26.168Z,101479.45
2022-10-11T02:37:07.448Z,101473.20
2022-10-11T02:39:49.041Z,101469.42
2022-10-11T02:42:34.136Z,101469.42
2022-10-11T02:45:12.223Z,101470.70
2022-10-11T02:47:46.980Z,101472.58
2022-10-11T02:50:18.208Z,101469.02
2022-10-11T02:52:47.887Z,101464.63
2022-10-11T02:55:17.174Z,101461.42
2022-10-11T02:57:47.506Z,101456.89
2022-10-11T03:00:16.841Z,101458.02
2022-10-11T03:02:46.545Z,101456.63
2022-10-11T03:05:16.781Z,101453.29
2022-10-11T03:07:46.565Z,101458.46
2022-10-11T03:10:16.380Z,101458.84
2022-10-11T03:12:45.783Z,101456.70
2022-10-11T03:15:15.260Z,101456.33
2022-10-11T03:17:45.481Z,101454.14
2022-10-11T03:20:17.666Z,101454.41
2022-10-11T03:22:46.809Z,101456.81
2022-10-11T03:25:18.263Z,101458.85
2022-10-11T03:27:47.461Z,101459.23
2022-10-11T03:30:18.488Z,101458.02
2022-10-11T03:32:48.413Z,101451.56
2022-10-11T03:35:18.254Z,101454.03
2022-10-11T03:37:54.414Z,101447.63
2022-10-11T03:40:23.863Z,101451.00
2022-10-11T03:42:53.581Z,101449.40
2022-10-11T03:45:23.524Z,101449.30
2022-10-11T03:47:52.631Z,101452.09
2022-10-11T03:50:21.689Z,101454.71
2022-10-11T03:52:54.191Z,101456.35
2022-10-11T03:55:24.263Z,101454.39
2022-10-11T03:57:53.792Z,101450.40
2022-10-11T04:00:25.514Z,101449.12
2022-10-11T04:02:55.087Z,101448.65
2022-10-11T04:05:25.385Z,101449.79
2022-10-11T04:07:55.167Z,101447.65
2022-10-11T04:10:24.971Z,101450.69
2022-10-11T04:12:55.169Z,101452.14
2022-10-11T04:15:27.792Z,101453.79
2022-10-11T04:17:57.273Z,101455.52
2022-10-11T04:20:35.651Z,101453.73
2022-10-11T04:23:04.866Z,101452.85
2022-10-11T04:25:35.113Z,101451.94
2022-10-11T04:28:04.455Z,101446.23
2022-10-11T04:30:34.010Z,101450.08
2022-10-11T04:33:02.970Z,101448.05
2022-10-11T04:35:33.793Z,101444.90
2022-10-11T04:38:05.943Z,101444.10
2022-10-11T04:40:35.762Z,101442.45
2022-10-11T04:43:05.489Z,101444.44
2022-10-11T04:45:35.218Z,101440.45
2022-10-11T04:48:04.815Z,101441.45
2022-10-11T04:50:34.279Z,101440.02
2022-10-11T04:53:03.186Z,101438.36
2022-10-11T04:55:33.646Z,101438.84
2022-10-11T04:58:03.351Z,101439.11
2022-10-11T05:00:32.679Z,101441.89
2022-10-11T05:03:01.829Z,101445.84
2022-10-11T05:05:31.251Z,101447.39
2022-10-11T05:08:00.442Z,101451.64
2022-10-11T05:10:29.429Z,101452.34
2022-10-11T05:12:58.667Z,101448.88
2022-10-11T05:15:30.467Z,101450.05
2022-10-11T05:18:01.045Z,101448.75
2022-10-11T05:20:31.714Z,101445.89
2022-10-11T05:23:00.840Z,101446.58
2022-10-11T05:25:33.709Z,101450.25
2022-10-11T05:28:03.030Z,101449.11
2022-10-11T05:30:32.571Z,101451.39
2022-10-11T05:33:02.561Z,101453.89
2022-10-11T05:35:31.678Z,101457.41
2022-10-11T05:37:59.056Z,101459.23
2022-10-11T05:40:27.119Z,101463.23
2022-10-11T05:42:54.119Z,101463.65
2022-10-11T05:45:24.213Z,101465.64
2022-10-11T05:47:51.378Z,101468.84
2022-10-11T05:50:22.034Z,101472.02
2022-10-11T05:52:51.621Z,101473.73
2022-10-11T05:55:22.762Z,101475.61
2022-10-11T05:57:53.623Z,101476.54
2022-10-11T06:00:30.496Z,101477.41
2022-10-11T06:03:03.263Z,101478.80
2022-10-11T06:05:30.414Z,101483.39
2022-10-11T06:07:59.114Z,101485.80
2022-10-11T06:10:26.858Z,101486.18
2022-10-11T06:12:54.012Z,101485.86
2022-10-11T06:15:25.435Z,101485.70
2022-10-11T06:17:54.052Z,101483.36
2022-10-11T06:20:21.098Z,101480.69
2022-10-11T06:22:48.578Z,101481.93
2022-10-11T06:25:17.023Z,101479.76
2022-10-11T06:27:43.976Z,101485.09
2022-10-11T06:30:13.699Z,101487.64
2022-10-11T06:32:40.741Z,101490.27
2022-10-11T06:35:09.327Z,101490.17
2022-10-11T06:37:38.322Z,101493.69
2022-10-11T06:40:07.408Z,101496.57
2022-10-11T06:42:34.830Z,101497.11
2022-10-11T06:45:01.806Z,101494.70
2022-10-11T06:47:28.863Z,101497.20
2022-10-11T06:49:57.341Z,101498.65
2022-10-11T06:52:24.488Z,101505.94
2022-10-11T06:54:51.540Z,101508.44
2022-10-11T06:57:19.530Z,101509.70
2022-10-11T06:59:47.667Z,101512.52
2022-10-11T07:02:14.679Z,101517.54
2022-10-11T07:04:41.650Z,101517.89
2022-10-11T07:07:08.864Z,101521.09
2022-10-11T07:09:36.078Z,101522.38
2022-10-11T07:12:05.182Z,101525.27
2022-10-11T07:14:32.727Z,101522.33
2022-10-11T07:17:04.023Z,101524.36
2022-10-11T07:19:33.522Z,101522.19
2022-10-11T07:22:06.779Z,101521.76
2022-10-11T07:24:33.821Z,101530.24
2022-10-11T07:27:03.444Z,101537.45
2022-10-11T07:29:30.653Z,101538.46
2022-10-11T07:32:00.804Z,101540.34
2022-10-11T07:34:27.686Z,101539.33
2022-10-11T07:36:54.695Z,101543.02
2022-10-11T07:39:26.970Z,101542.54
2022-10-11T07:41:54.019Z,101542.86
2022-10-11T07:44:21.172Z,101542.86
2022-10-11T07:46:48.854Z,101544.94
2022-10-11T07:49:15.778Z,101544.36
2022-10-11T07:51:42.897Z,101546.23
2022-10-11T07:54:10.578Z,101546.80
2022-10-11T07:59:22.857Z,101541.73
2022-10-11T08:01:50.005Z,101543.33
2022-10-11T08:04:17.856Z,101546.89
2022-10-11T08:06:45.745Z,101547.55
2022-10-11T08:09:15.345Z,101548.27
2022-10-11T08:11:43.467Z,101549.62
2022-10-11T08:14:15.239Z,101550.70
2022-10-11T08:16:42.291Z,101551.12
2022-10-11T08:19:11.159Z,101552.72
2022-10-11T08:21:38.186Z,101553.73
2022-10-11T08:24:06.932Z,101555.34
2022-10-11T08:26:35.691Z,101552.98
2022-10-11T08:29:04.315Z,101550.95
2022-10-11T08:31:34.698Z,101547.96
2022-10-11T08:34:04.615Z,101547.37
2022-10-11T08:36:32.269Z,101552.30
2022-10-11T08:38:59.632Z,101557.89
2022-10-11T08:41:32.414Z,101558.11
2022-10-11T08:44:05.612Z,101564.58
2022-10-11T08:46:35.626Z,101568.88
2022-10-11T08:49:05.642Z,101566.63
2022-10-11T08:51:52.865Z,101570.41
2022-10-11T08:54:34.854Z,101571.44
2022-10-11T08:57:05.946Z,101572.66
2022-10-11T08:59:58.154Z,101573.52
2022-10-11T09:03:07.018Z,101573.41
2022-10-11T09:05:58.072Z,101578.08
2022-10-11T09:09:03.904Z,101583.48
2022-10-11T09:11:52.489Z,101584.02
2022-10-11T09:14:55.083Z,101585.45
2022-10-11T09:17:52.852Z,101584.66
2022-10-11T09:20:41.997Z,101583.45
2022-10-11T09:23:27.808Z,101581.96
2022-10-11T09:26:27.088Z,101584.95
2022-10-11T09:29:15.538Z,101586.17
2022-10-11T09:31:49.584Z,101589.06
2022-10-11T09:34:19.051Z,101583.89
2022-10-11T09:37:35.517Z,101585.83
2022-10-11T09:40:31.695Z,101588.45
2022-10-11T09:43:01.160Z,101586.01
2022-10-11T09:45:28.549Z,101590.77
2022-10-11T09:47:59.313Z,101588.79
2022-10-11T09:50:29.811Z,101591.41
2022-10-11T09:53:02.885Z,101590.13
2022-10-11T09:55:49.952Z,101586.20
2022-10-11T09:58:26.907Z,101587.96
2022-10-11T10:01:05.100Z,101583.20
2022-10-11T10:03:47.625Z,101582.77
2022-10-11T10:06:27.438Z,101584.66
2022-10-11T10:08:55.638Z,101580.08
2022-10-11T10:11:27.485Z,101581.09
2022-10-11T10:13:59.594Z,101578.14
2022-10-11T10:16:35.604Z,101576.23
2022-10-11T10:19:09.330Z,101572.77
2022-10-11T10:21:39.144Z,101568.60
2022-10-11T10:24:09.781Z,101569.52
2022-10-11T10:26:38.262Z,101570.81
2022-10-11T10:29:18.748Z,101567.40
2022-10-11T10:32:12.931Z,101569.05
2022-10-11T10:35:09.548Z,101566.08
2022-10-11T10:37:43.968Z,101568.42
2022-10-11T10:40:23.502Z,101571.67
2022-10-11T10:42:51.273Z,101573.54
2022-10-11T10:45:24.370Z,101575.10
2022-10-11T10:48:03.390Z,101576.96
2022-10-11T10:50:42.297Z,101577.34
2022-10-11T10:53:23.125Z,101575.70
2022-10-11T10:56:05.762Z,101567.65
2022-10-11T10:59:00.696Z,101565.45
2022-10-11T11:01:32.417Z,101565.47
2022-10-11T11:04:30.325Z,101561.73
2022-10-11T11:07:54.900Z,101561.16
2022-10-11T11:10:25.718Z,101561.80
2022-10-11T11:13:28.772Z,101559.77
2022-10-11T11:16:19.555Z,101559.06
2022-10-11T11:18:58.887Z,101553.83
2022-10-11T11:21:41.892Z,101556.02
2022-10-11T11:24:30.388Z,101551.17
2022-10-11T11:27:06.117Z,101548.02
2022-10-11T11:29:41.460Z,101545.31
2022-10-11T11:32:35.030Z,101543.45
2022-10-11T11:35:06.448Z,101541.81
2022-10-11T11:37:40.799Z,101537.97
2022-10-11T11:40:16.960Z,101535.30
2022-10-11T11:43:15.833Z,101535.47
2022-10-11T11:45:48.947Z,101533.66
2022-10-11T11:48:20.903Z,101529.65
2022-10-11T11:51:09.965Z,101531.71
2022-10-11T11:54:06.542Z,101532.14
2022-10-11T11:56:58.023Z,101528.95
2022-10-11T11:59:38.077Z,101528.14
2022-10-11T12:02:42.015Z,101522.75
2022-10-11T12:05:12.936Z,101518.64
2022-10-11T12:07:57.284Z,101518.28
2022-10-11T12:10:27.990Z,101509.55
2022-10-11T12:13:20.738Z,101506.17
2022-10-11T12:16:06.489Z,101500.84
2022-10-11T12:18:41.918Z,101501.34
2022-10-11T12:21:37.418Z,101492.70
2022-10-11T12:24:12.193Z,101486.87
2022-10-11T12:26:44.660Z,101486.43
2022-10-11T12:29:18.524Z,101482.21
2022-10-11T12:31:49.628Z,101481.88
2022-10-11T12:37:22.673Z,101477.46
2022-10-11T12:39:57.845Z,101476.77
2022-10-11T12:42:30.098Z,101473.42
2022-10-11T12:45:13.251Z,101475.63
2022-10-11T12:48:28.690Z,101476.13
2022-10-11T12:51:23.168Z,101474.17
2022-10-11T12:54:24.926Z,101474.77
2022-10-11T12:57:00.940Z,101471.64
2022-10-11T12:59:31.635Z,101471.02
2022-10-11T13:02:00.556Z,101473.52
2022-10-11T13:04:33.062Z,101470.39
2022-10-11T13:07:12.969Z,101467.11
2022-10-11T13:09:48.840Z,101470.63
2022-10-11T13:12:20.166Z,101467.48
2022-10-11T13:15:12.396Z,101463.38
2022-10-11T13:17:42.225Z,101466.95
2022-10-11T13:20:24.617Z,101466.58
2022-10-11T13:22:57.002Z,101462.67
2022-10-11T13:25:27.731Z,101462.25
2022-10-11T13:27:58.453Z,101459.84
2022-10-11T13:30:31.851Z,101455.50
2022-10-11T13:33:01.248Z,101457.11
2022-10-11T13:35:36.511Z,101459.94
2022-10-11T13:38:07.633Z,101461.33
2022-10-11T13:40:36.691Z,101455.14
2022-10-11T13:43:06.084Z,101451.98
2022-10-11T13:45:36.150Z,101448.41
2022-10-11T13:48:03.520Z,101449.97
2022-10-11T13:50:35.027Z,101449.88
2022-10-11T13:53:22.831Z,101444.59
2022-10-11T13:56:06.644Z,101439.36
2022-10-11T13:58:47.715Z,101435.36
2022-10-11T14:01:20.832Z,101438.66
2022-10-11T14:04:04.204Z,101440.31
2022-10-11T14:06:46.135Z,101438.73
2022-10-11T14:09:23.624Z,101449.08
2022-10-11T14:11:52.826Z,101451.33
2022-10-11T14:14:35.948Z,101449.97
2022-10-11T14:17:22.961Z,101450.92
2022-10-11T14:20:15.929Z,101441.27
2022-10-11T14:22:43.530Z,101444.53
2022-10-11T14:25:12.687Z,101443.84
2022-10-11T14:27:39.928Z,101448.30
2022-10-11T14:30:31.209Z,101446.33
2022-10-11T14:33:01.276Z,101449.55
2022-10-11T14:35:31.175Z,101450.30
2022-10-11T14:37:58.523Z,101450.48
2022-10-11T14:40:29.368Z,101451.84
2022-10-11T14:42:57.129Z,101452.06
2022-10-11T14:45:24.893Z,101452.88
2022-10-11T14:47:52.144Z,101453.27
2022-10-11T14:50:45.403Z,101453.23
2022-10-11T14:53:14.847Z,101450.20
2022-10-11T14:55:43.353Z,101449.34
2022-10-11T14:58:13.936Z,101450.05
2022-10-11T15:00:40.919Z,101451.59
2022-10-11T15:03:08.839Z,101450.36
2022-10-11T15:05:37.528Z,101451.80
2022-10-11T15:08:06.772Z,101456.22
2022-10-11T15:10:38.139Z,101453.98
2022-10-11T15:13:07.408Z,101452.06
2022-10-11T15:15:37.192Z,101452.34
2022-10-11T15:18:06.722Z,101454.19
2022-10-11T15:20:38.035Z,101458.25
2022-10-11T15:23:06.540Z,101458.00
2022-10-11T15:25:34.899Z,101463.60
2022-10-11T15:28:03.589Z,101467.14
2022-10-11T15:30:40.936Z,101468.11
2022-10-11T15:33:09.726Z,101468.82
2022-10-11T15:35:39.063Z,101471.90
2022-10-11T15:38:25.248Z,101471.21
2022-10-11T15:40:53.438Z,101469.11
2022-10-11T15:43:25.122Z,101474.38
2022-10-11T15:45:55.107Z,101475.81
2022-10-11T15:48:29.891Z,101476.11
2022-10-11T15:50:57.707Z,101472.88
2022-10-11T15:53:28.736Z,101473.61
2022-10-11T15:56:01.625Z,101470.79
2022-10-11T15:58:32.416Z,101470.69
2022-10-11T16:01:05.734Z,101471.02
2022-10-11T16:03:36.372Z,101472.40
2022-10-11T16:06:05.701Z,101469.84
2022-10-11T16:08:34.184Z,101473.68
2022-10-11T16:11:01.933Z,101473.80
2022-10-11T16:13:29.884Z,101470.50
2022-10-11T16:16:00.668Z,101473.81
2022-10-11T16:18:35.733Z,101473.58
2022-10-11T16:21:13.434Z,101474.96
2022-10-11T16:23:48.461Z,101478.81
2022-10-11T16:26:17.299Z,101485.96
2022-10-11T16:28:45.406Z,101488.56
2022-10-11T16:31:18.470Z,101496.20
2022-10-11T16:33:48.120Z,101496.48
2022-10-11T16:36:36.956Z,101494.03
2022-10-11T16:39:14.637Z,101501.98
2022-10-11T16:41:45.554Z,101506.96
2022-10-11T16:44:19.592Z,101509.20
2022-10-11T16:46:48.782Z,101507.41
2022-10-11T16:49:22.884Z,101510.84
2022-10-11T16:51:51.387Z,101514.58
2022-10-11T16:54:21.178Z,101514.70
2022-10-11T16:56:50.587Z,101512.56
2022-10-11T16:59:26.154Z,101515.60
2022-10-11T17:01:55.796Z,101520.03
2022-10-11T17:04:22.983Z,101518.16
2022-10-11T17:06:51.601Z,101518.21
2022-10-11T17:09:20.176Z,101519.51
2022-10-11T17:11:49.656Z,101517.65
2022-10-11T17:14:20.499Z,101515.45
2022-10-11T17:16:47.749Z,101516.03
2022-10-11T17:19:18.814Z,101519.77
2022-10-11T17:21:45.942Z,101520.79
2022-10-11T17:24:13.495Z,101522.13
2022-10-11T17:29:50.860Z,101524.41
2022-10-11T17:32:28.620Z,101520.34
2022-10-11T17:34:58.819Z,101518.52
2022-10-11T17:37:29.030Z,101520.49
2022-10-11T17:39:56.110Z,101525.32
2022-10-11T17:42:23.185Z,101522.44
2022-10-11T17:44:50.470Z,101522.80
2022-10-11T17:47:20.493Z,101523.73
2022-10-11T17:50:02.348Z,101524.52
2022-10-11T17:52:35.281Z,101531.62
2022-10-11T17:55:02.371Z,101539.29
2022-10-11T17:57:30.440Z,101540.66
2022-10-11T17:59:59.629Z,101543.23
2022-10-11T18:02:36.714Z,101544.55
2022-10-11T18:05:06.363Z,101545.09
2022-10-11T18:07:34.651Z,101546.42
2022-10-11T18:10:17.021Z,101547.71
2022-10-11T18:12:50.765Z,101551.94
2022-10-11T18:15:24.086Z,101553.42
2022-10-11T18:18:04.079Z,101559.27
2022-10-11T18:20:57.546Z,101566.70
2022-10-11T18:23:28.501Z,101568.20
2022-10-11T18:26:09.738Z,101568.58
2022-10-11T18:28:38.292Z,101568.95
2022-10-11T18:31:14.694Z,101560.83
2022-10-11T18:33:47.474Z,101560.61
2022-10-11T18:36:17.243Z,101559.66
2022-10-11T18:38:50.011Z,101558.92
2022-10-11T18:41:32.340Z,101558.23
2022-10-11T18:44:05.017Z,101558.42
2022-10-11T18:46:35.992Z,101562.33
2022-10-11T18:49:04.144Z,101564.14
2022-10-11T18:51:36.151Z,101566.10
2022-10-11T18:54:06.255Z,101572.63
2022-10-11T18:56:45.006Z,101577.11
2022-10-11T18:59:12.935Z,101574.92
2022-10-11T19:01:45.187Z,101575.67
2022-10-11T19:04:18.920Z,101579.52
2022-10-11T19:06:54.607Z,101575.52
2022-10-11T19:09:37.575Z,101576.44
2022-10-11T19:12:21.582Z,101576.88
2022-10-11T19:14:59.545Z,101581.27
2022-10-11T19:17:28.470Z,101585.42
2022-10-11T19:20:02.561Z,101587.52
2022-10-11T19:22:31.390Z,101586.36
2022-10-11T19:25:03.800Z,101590.05
2022-10-11T19:27:31.770Z,101593.73
2022-10-11T19:30:06.494Z,101595.06
2022-10-11T19:32:38.644Z,101601.23
2022-10-11T19:37:59.671Z,101600.01
2022-10-11T19:40:30.250Z,101600.30
2022-10-11T19:45:56.024Z,101600.94
2022-10-11T19:48:24.585Z,101601.48
2022-10-11T19:51:09.010Z,101602.65
2022-10-11T19:53:37.939Z,101602.89
2022-10-11T19:56:16.872Z,101604.91
2022-10-11T19:59:11.259Z,101609.56
2022-10-11T20:01:40.347Z,101609.53
2022-10-11T20:07:01.496Z,101613.00
2022-10-11T20:09:31.111Z,101612.36
2022-10-11T20:12:21.372Z,101618.65
2022-10-11T20:14:50.786Z,101625.23
2022-10-11T20:17:48.968Z,101625.82
2022-10-11T20:20:19.395Z,101626.14
2022-10-11T20:22:46.378Z,101626.99
2022-10-11T20:25:13.955Z,101632.01
2022-10-11T20:27:48.405Z,101634.52
2022-10-11T20:30:20.890Z,101635.80
2022-10-11T20:32:53.929Z,101629.84
2022-10-11T20:35:32.353Z,101630.96
2022-10-11T20:38:06.494Z,101630.27
2022-10-11T20:40:37.755Z,101626.87
2022-10-11T20:43:11.476Z,101625.75
2022-10-11T20:46:23.868Z,101629.60
2022-10-11T20:49:06.384Z,101631.20
2022-10-11T20:51:44.620Z,101630.77
2022-10-11T20:54:20.915Z,101630.36
2022-10-11T20:57:04.918Z,101634.01
2022-10-11T20:59:37.411Z,101635.29
2022-10-11T21:02:05.881Z,101640.63
2022-10-11T21:04:33.421Z,101640.20
2022-10-11T21:07:00.416Z,101636.14
2022-10-11T21:09:27.630Z,101640.39
2022-10-11T21:11:54.706Z,101640.50
2022-10-11T21:14:21.674Z,101634.52
2022-10-11T21:16:48.852Z,101634.16
2022-10-11T21:19:16.303Z,101631.13
2022-10-11T21:21:47.402Z,101629.20
2022-10-11T21:24:17.989Z,101626.59
2022-10-11T21:26:45.068Z,101626.72
2022-10-11T21:29:12.044Z,101627.09
2022-10-11T21:31:40.927Z,101629.23
2022-10-11T21:34:08.116Z,101627.98
2022-10-11T21:36:35.597Z,101625.22
2022-10-11T21:39:03.000Z,101624.31
2022-10-11T21:41:30.428Z,101621.84
2022-10-11T21:43:58.882Z,101621.84
2022-10-11T21:46:54.198Z,101623.53
2022-10-11T21:49:15.732Z,101624.73
2022-10-11T21:51:46.615Z,101622.96
2022-10-11T21:54:13.684Z,101625.91
2022-10-11T21:56:40.747Z,101625.04
2022-10-11T21:59:11.163Z,101620.24
2022-10-11T22:01:41.456Z,101614.42
2022-10-11T22:04:12.510Z,101607.55
2022-10-11T22:06:46.012Z,101602.11
2022-10-11T22:09:15.415Z,101599.65
2022-10-11T22:11:42.519Z,101599.46
2022-10-11T22:14:10.541Z,101595.14
2022-10-11T22:16:37.431Z,101591.14
2022-10-11T22:19:04.440Z,101587.98
2022-10-11T22:21:31.505Z,101591.72
2022-10-11T22:23:58.761Z,101591.50
2022-10-11T22:26:30.910Z,101588.36
2022-10-11T22:28:59.095Z,101588.89
2022-10-11T22:31:26.661Z,101590.80
2022-10-11T22:33:58.044Z,101594.68
2022-10-11T22:36:25.929Z,101601.25
2022-10-11T22:38:53.607Z,101603.07
2022-10-11T22:41:21.115Z,101604.66
2022-10-11T22:43:48.174Z,101605.09
2022-10-11T22:46:15.136Z,101602.07
2022-10-11T22:48:42.057Z,101601.70
2022-10-11T22:51:09.187Z,101599.19
2022-10-11T22:53:36.379Z,101595.93
2022-10-11T22:56:03.715Z,101591.13
2022-10-11T22:58:30.704Z,101587.29
2022-10-11T23:00:57.574Z,101591.58
2022-10-11T23:03:25.188Z,101593.61
2022-10-11T23:05:58.437Z,101590.27
2022-10-11T23:08:25.527Z,101587.86
2022-10-11T23:10:53.172Z,101584.95
2022-10-11T23:13:20.661Z,101580.10
2022-10-11T23:15:47.713Z,101577.65
2022-10-11T23:18:18.706Z,101579.77
2022-10-11T23:20:45.722Z,101579.61
2022-10-11T23:23:12.653Z,101583.95
2022-10-11T23:25:39.746Z,101586.40
2022-10-11T23:28:06.815Z,101590.84
2022-10-11T23:30:33.754Z,101586.84
2022-10-11T23:33:00.712Z,101580.01
2022-10-11T23:35:27.572Z,101577.59
2022-10-11T23:37:55.003Z,101582.77
2022-10-11T23:40:22.023Z,101582.52
2022-10-11T23:42:48.892Z,101582.52
2022-10-11T23:45:16.026Z,101582.73
2022-10-11T23:47:42.950Z,101590.54
2022-10-11T23:50:10.146Z,101597.23
2022-10-11T23:52:37.082Z,101602.45
2022-10-11T23:55:04.297Z,101602.14
2022-10-11T23:57:31.308Z,101599.62
2022-10-11T23:59:58.255Z,101596.27
